KOVE/OVE METAR and TAF weather

Enter ICAO airport designator
Station Type Date Time Source
KOVE METAR 2022/01/26 13:53 UTC NOAA

KOVE 261353Z AUTO 31004KT 6SM BR CLR 04/03 A3016 RMK AO2 SLP217 T00440028


Station Type Date Time Source
KOVE Decoded METAR 2022/01/26 13:53 UTC NOAA

OROVILLE MUNICIPAL AIRPORT, CA, United States (KOVE) 39-30N 121-37W 58M
Jan 26, 2022 - 08:53 AM EST / 2022.01.26 1353 UTC
Wind: from the NW (310 degrees) at 5 MPH (4 KT):0
Visibility: 6 mile(s):0
Sky conditions: clear
Weather: mist
Temperature: 39.9 F (4.4 C)
Dew Point: 37.0 F (2.8 C)
Relative Humidity: 89%
Pressure (altimeter): 30.16 in. Hg (1021 hPa)
ob: KOVE 261353Z AUTO 31004KT 6SM BR CLR 04/03 A3016 RMK AO2 SLP217 T00440028
cycle: 14

Station Type Date Time Source
KOVE TAF UTC NOAA

Error!

Example: see airport list